• Join FlightAware (Why Join?)
  • Login
  • US Flag 
06:18AM EST


 

Airport Tracker/Info


-or-


 

Live Flight TrackerFlight Track Log ✈ N682RW ✈ 09-Dec-2013 ✈ KDTW - KFLL

Flight Track Log - Related Links

Times and Time Zones

All times are in EST time to prevent confusion due to time zone crossing. See the N682RW flight status page for this flight to view local times or setup timezone preferences in your user account.

Time Position Orientation Groundspeed Altitude Reporting Facility
EST Latitude Longitude Course Direction KTS MPH feet Rate Location/Type
03:08PM 42.2050 -83.3528 192° South 160 184 1,100  Level Cleveland Center
03:09PM 42.1708 -83.3622 192° South 210 242 2,700 2,520 Climbing Cleveland Center
03:10PM 42.1250 -83.3711 188° South 216 249 5,000 2,640 Climbing Cleveland Center
03:10PM 42.0986 -83.3744 185° South 257 296 5,700 2,880 Climbing Cleveland Center
03:11PM 42.0500 -83.3725 178° South 259 298 8,000 2,820 Climbing Cleveland Center
03:12PM 41.9747 -83.3631 175° South 282 325 10,700 2,580 Climbing Cleveland Center
03:13PM 41.8797 -83.3569 177° South 320 368 13,400 2,700 Climbing Cleveland Center
03:14PM 41.7867 -83.3497 177° South 333 383 16,400 2,460 Climbing Cleveland Center
03:15PM 41.6922 -83.3431 177° South 337 388 18,600 2,580 Climbing Cleveland Center
03:16PM 41.5800 -83.3347 177° South 336 387 21,800 2,220 Climbing Cleveland Center
03:17PM 41.4931 -83.3514 188° South 317 365 23,300 1,380 Climbing Cleveland Center
03:18PM 41.4150 -83.3986 204° Southwest 308 354 24,700 1,320 Climbing Cleveland Center
03:19PM 41.3339 -83.4444 203° Southwest 316 364 26,100 1,260 Climbing Cleveland Center
03:20PM 41.2506 -83.4922 203° Southwest 324 373 27,400 1,260 Climbing Cleveland Center
03:21PM 41.1661 -83.5428 204° Southwest 331 381 28,800 1,440 Climbing Cleveland Center
03:22PM 41.0675 -83.5981 203° Southwest 327 376 30,400 1,260 Climbing Cleveland Center
03:23PM 41.0178 -83.6289 205° Southwest 328 377 31,000 900 Climbing Indianapolis Center
03:24PM 40.9219 -83.6458 188° South 365 420 32,000 480 Climbing Indianapolis Center
03:25PM 40.8214 -83.6494 182° South 362 417 32,000  Level Indianapolis Center
03:26PM 40.6983 -83.6561 182° South 367 422 32,000  Level Indianapolis Center
03:27PM 40.5967 -83.6617 182° South 368 423 32,000  Level Indianapolis Center
03:28PM 40.4942 -83.6678 183° South 368 423 32,000  Level Indianapolis Center
03:29PM 40.3917 -83.6722 182° South 369 425 32,000  Level Indianapolis Center
03:30PM 40.2903 -83.6789 183° South 367 422 32,000  Level Indianapolis Center
03:31PM 40.1867 -83.6833 182° South 371 427 32,000  Level Indianapolis Center
03:32PM 40.0639 -83.6900 182° South 371 427 32,000  Level Indianapolis Center
03:33PM 39.9614 -83.6958 182° South 373 429 32,000  Level Indianapolis Center
03:34PM 39.8594 -83.7006 182° South 373 429 32,000  Level Indianapolis Center
03:35PM 39.7578 -83.7072 183° South 372 428 32,000  Level Indianapolis Center
03:36PM 39.6547 -83.7119 182° South 375 432 32,000  Level Indianapolis Center
03:37PM 39.5289 -83.7178 182° South 379 436 32,000  Level Indianapolis Center
03:38PM 39.4236 -83.7231 182° South 380 437 32,000  Level Indianapolis Center
03:39PM 39.3194 -83.7289 182° South 377 434 32,000 180 Level Indianapolis Center
03:40PM 39.2156 -83.7336 182° South 376 433 32,400 480 Climbing Indianapolis Center
03:41PM 39.1119 -83.7389 182° South 373 429 33,000 240 Climbing Indianapolis Center
03:42PM 39.0069 -83.7442 182° South 378 435 33,000  Level Indianapolis Center
03:43PM 38.8828 -83.7506 182° South 374 430 33,000  Level Indianapolis Center
03:44PM 38.7778 -83.7564 182° South 378 435 33,000  Level Indianapolis Center
03:45PM 38.6736 -83.7603 182° South 376 433 33,000  Level Indianapolis Center
03:46PM 38.5614 -83.7678 183° South 379 436 33,000  Level Indianapolis Center
03:47PM 38.4558 -83.7719 182° South 379 436 33,000  Level Indianapolis Center
03:48PM 38.3500 -83.7775 182° South 379 436 33,000  Level Indianapolis Center
03:49PM 38.2450 -83.7825 182° South 378 435 33,000  Level Indianapolis Center
03:50PM 38.1383 -83.7883 182° South 383 441 33,000  Level Indianapolis Center
03:51PM 38.0139 -83.7956 183° South 383 441 33,000  Level Indianapolis Center
03:53PM 37.9081 -83.7992 182° South 381 438 33,000  Level Indianapolis Center
03:54PM 37.8022 -83.8042 182° South 381 438 33,000  Level Indianapolis Center
03:55PM 37.6953 -83.8086 182° South 382 440 33,000  Level Indianapolis Center
03:56PM 37.5883 -83.8142 182° South 384 442 33,000  Level Indianapolis Center
03:57PM 37.4825 -83.8194 182° South 382 440 33,000  Level Indianapolis Center
03:58PM 37.3575 -83.8258 182° South 384 442 33,000  Level Indianapolis Center
03:59PM 37.2508 -83.8306 182° South 384 442 33,000  Level Indianapolis Center
04:00PM 37.1425 -83.8367 183° South 388 447 33,000  Level Indianapolis Center
04:01PM 37.0350 -83.8411 182° South 388 447 33,000  Level Indianapolis Center
04:02PM 36.9256 -83.8458 182° South 393 452 33,000  Level Indianapolis Center
04:03PM 36.8156 -83.8517 182° South 395 455 33,000  Level Indianapolis Center
04:04PM 36.6878 -83.8578 182° South 395 455 33,000  Level Indianapolis Center
04:05PM 36.5769 -83.8628 182° South 396 456 33,000  Level Indianapolis Center
04:06PM 36.4725 -83.8678 182° South 398 458 33,000  Level Indianapolis Center
04:07PM 36.3600 -83.8728 182° South 401 461 33,000  Level Indianapolis Center
04:08PM 36.2489 -83.8781 182° South 399 459 33,000  Level Indianapolis Center
04:09PM 36.1133 -83.8842 182° South 402 463 33,000  Level Indianapolis Center
04:10PM 36.0414 -83.8897 184° South 401 461 33,000  Level Atlanta Center
04:11PM 35.9289 -83.8950 182° South 401 461 33,000  Level Atlanta Center
04:12PM 35.8119 -83.8569 165° South 416 479 33,000  Level Atlanta Center
04:13PM 35.6972 -83.8008 158° South 426 490 33,000  Level Atlanta Center
04:14PM 35.5803 -83.7475 160° South 441 507 33,000  Level Atlanta Center
04:15PM 35.4653 -83.6944 159° South 446 513 33,000  Level Atlanta Center
04:16PM 35.3483 -83.6442 161° South 446 513 33,000  Level Atlanta Center
04:17PM 35.2333 -83.5911 159° South 446 513 33,000  Level Atlanta Center
04:18PM 35.0997 -83.5336 161° South 454 522 33,000  Level Atlanta Center
04:19PM 34.9847 -83.4811 159° South 454 522 33,000  Level Atlanta Center
04:20PM 34.8717 -83.4286 159° South 448 516 33,000  Level Atlanta Center
04:21PM 34.7567 -83.3764 160° South 447 514 33,000  Level Atlanta Center
04:22PM 34.6519 -83.3292 160° South 447 514 33,000  Level Atlanta Center
04:23PM 34.5328 -83.2747 159° South 451 519 33,000  Level Atlanta Center
04:24PM 34.4219 -83.2256 160° South 444 511 33,000  Level Atlanta Center
04:25PM 34.2942 -83.1689 160° South 439 505 33,000  Level Atlanta Center
04:26PM 34.1747 -83.1172 160° South 450 518 33,000 -60 Level Atlanta Center
04:27PM 34.0597 -83.0658 160° South 450 518 32,900 -360 Descending Atlanta Center
04:28PM 33.9403 -83.0147 160° South 444 511 32,300 -480 Descending Atlanta Center
04:29PM 33.8250 -82.9661 161° South 449 517 32,000 -180 Descending Atlanta Center
04:30PM 33.7078 -82.9150 160° South 449 517 32,000  Level Atlanta Center
04:31PM 33.5925 -82.8642 160° South 442 509 32,000  Level Atlanta Center
04:32PM 33.4772 -82.8183 162° South 447 514 32,000  Level Atlanta Center
04:33PM 33.3764 -82.7725 159° South 447 514 32,000  Level Atlanta Center
04:34PM 33.2611 -82.7247 161° South 441 507 32,000  Level Atlanta Center
04:35PM 33.1458 -82.6742 160° South 441 507 32,000  Level Atlanta Center
04:36PM 33.0306 -82.6242 160° South 446 513 32,000  Level Atlanta Center
04:37PM 32.9131 -82.5764 161° South 446 513 32,000  Level Atlanta Center
04:38PM 32.8019 -82.5289 160° South 446 513 32,000  Level Atlanta Center
04:39PM 32.5978 -82.4389 160° South 430 495 32,000  Level Jacksonville Center
04:40PM 32.4786 -82.3903 161° South 440 506 32,000  Level Jacksonville Center
04:41PM 32.3617 -82.3392 160° South 450 518 32,000  Level Jacksonville Center
04:42PM 32.2486 -82.2786 156° South 450 518 32,000  Level Jacksonville Center
04:43PM 32.1458 -82.2128 152° Southeast 456 525 32,000  Level Jacksonville Center
04:44PM 32.0203 -82.1356 152° Southeast 463 533 32,000  Level Jacksonville Center
04:45PM 31.8967 -82.0900 163° South 462 532 32,000  Level Jacksonville Center
04:46PM 31.7900 -82.0494 162° South 462 532 32,000 300 Level Jacksonville Center
04:47PM 31.6539 -81.9994 163° South 462 532 32,700 780 Climbing Jacksonville Center
04:48PM 31.5347 -81.9542 162° South 462 532 33,600 600 Climbing Jacksonville Center
04:49PM 31.4131 -81.9092 162° South 455 524 34,000 180 Climbing Jacksonville Center
04:50PM 31.2897 -81.8642 163° South 461 531 34,000  Level Jacksonville Center
04:51PM 31.1744 -81.8217 162° South 456 525 34,000  Level Jacksonville Center
04:52PM 31.0572 -81.7769 162° South 438 504 34,000  Level Jacksonville Center
04:53PM 30.9397 -81.7347 163° South 438 504 34,000  Level Jacksonville Center
04:54PM 30.8203 -81.6903 162° South 445 512 34,000  Level Jacksonville Center
04:55PM 30.7031 -81.6458 162° South 445 512 34,000  Level Jacksonville Center
04:56PM 30.5836 -81.5992 161° South 445 512 34,000  Level Jacksonville Center
04:57PM 30.4661 -81.5550 162° South 445 512 34,000  Level Jacksonville Center
04:58PM 30.3447 -81.5133 163° South 445 512 34,000  Level Jacksonville Center
04:59PM 30.2253 -81.4669 161° South 445 512 34,000  Level Jacksonville Center
05:00PM 30.1056 -81.4208 162° South 445 512 34,000  Level Jacksonville Center
05:01PM 29.9967 -81.3792 162° South 445 512 34,000  Level Jacksonville Center
05:02PM 29.8750 -81.3333 162° South 445 512 34,000  Level Jacksonville Center
05:03PM 29.7533 -81.2872 162° South 450 518 34,000  Level Jacksonville Center
05:04PM 29.6317 -81.2439 163° South 456 525 34,000  Level Jacksonville Center
05:05PM 29.5119 -81.1933 160° South 456 525 34,000  Level Jacksonville Center
05:06PM 29.3925 -81.1503 163° South 461 531 34,000  Level Jacksonville Center
05:08PM 29.1961 -81.0069 147° Southeast 459 528 34,000  Level Miami Center
05:09PM 29.1011 -80.9011 136° Southeast 464 534 34,000  Level Miami Center
05:10PM 29.0061 -80.7956 136° Southeast 475 547 34,000  Level Miami Center
05:11PM 28.9111 -80.6881 135° Southeast 475 547 34,000  Level Miami Center
05:12PM 28.8047 -80.6014 144° Southeast 475 547 34,000  Level Miami Center
05:13PM 28.6978 -80.5456 155° Southeast 470 541 34,000  Level Miami Center
05:14PM 28.5825 -80.4828 154° Southeast 463 533 34,000  Level Miami Center
05:15PM 28.4569 -80.4103 153° Southeast 464 534 34,000  Level Miami Center
05:16PM 28.3417 -80.3478 154° Southeast 464 534 34,000  Level Miami Center
05:17PM 28.2264 -80.2828 154° Southeast 456 525 34,000  Level Miami Center
05:18PM 28.1256 -80.2281 154° Southeast 456 525 34,000  Level Miami Center
05:19PM 28.0100 -80.1633 154° Southeast 461 531 34,000 -420 Level Miami Center
05:20PM 27.8797 -80.1150 162° South 454 522 33,200 -2,040 Descending Miami Center
05:21PM 27.7597 -80.0694 161° South 454 522 30,000 -3,420 Descending Miami Center
05:22PM 27.6353 -80.0236 162° South 459 528 26,400 -2,760 Descending Miami Center
05:23PM 27.5194 -79.9783 161° South 453 521 24,500 -1,200 Descending Miami Center
05:24PM 27.4075 -79.9356 161° South 441 507 24,000 -300 Descending Miami Center
05:25PM 27.2958 -79.8906 160° South 431 496 24,000 -780 Level Miami Center
05:26PM 27.1858 -79.8503 162° South 426 490 22,500 -1,920 Descending Miami Center
05:27PM 27.0803 -79.8125 162° South 417 480 20,200 -2,400 Descending Miami Center
05:28PM 26.9869 -79.7753 160° South 400 460 17,800 -2,280 Descending Miami Center
05:29PM 26.8833 -79.7378 162° South 395 455 15,700 -1,800 Descending Miami Center
05:30PM 26.7858 -79.6981 160° South 378 435 14,300 -1,860 Descending Miami Center
05:31PM 26.6811 -79.7186 190° South 350 403 12,000 -1,860 Descending Miami Center
05:32PM 26.6053 -79.7542 203° Southwest 344 396 10,600 -1,440 Descending Miami Center
05:33PM 26.5272 -79.7917 203° Southwest 296 341 9,200 -1,380 Descending Miami Center
05:33PM 26.5208 -79.7939 197° South 275 316 9,200 -1,140 Level Miami Center
05:34PM 26.4556 -79.8222 201° Southwest 276 318 8,100 -1,200 Descending Miami Center
05:34PM 26.4619 -79.8203 15° North 282 325 8,100 -180 Level Miami Center
05:35PM 26.3964 -79.8533 204° Southwest 281 323 8,000 -120 Descending Miami Center
05:35PM 26.3839 -79.8600 206° Southwest 282 325 8,000 -1,080 Level Miami Center
05:36PM 26.3306 -79.9097 220° Southwest 279 321 6,800 -1,200 Descending Miami Center
05:36PM 26.3219 -79.9164 215° Southwest 282 325 6,800 -840 Level Miami Center
05:37PM 26.2686 -79.9706 222° Southwest 271 312 6,000 -840 Descending Miami Center
05:37PM 26.2644 -79.9728 206° Southwest 282 325 6,000  Level Miami Center
05:38PM 26.2111 -80.0222 220° Southwest 269 310 6,000  Level Miami Center
05:38PM 26.2175 -80.0203 15° North 276 318 6,000  Level Miami Center
05:39PM 26.1681 -80.0883 231° Southwest 259 298 6,000  Level Miami Center
05:39PM 26.1703 -80.0792 75° East 271 312 6,000 -300 Level Miami Center
05:40PM 26.1519 -80.1481 253° West 253 291 5,700 -780 Descending Miami Center
05:41PM 26.1525 -80.2175 271° West 217 250 4,500 -900 Descending Miami Center
05:42PM 26.1447 -80.2797 262° West 183 211 4,000 -540 Descending Miami Center
05:42PM 26.1511 -80.2753 32° Northeast 211 243 4,000  Level Miami Center
05:43PM 26.1475 -80.3378 266° West 186 214 4,000  Level Miami Center
05:43PM 26.1497 -80.3356 42° Northeast 205 236 4,000 -600 Level Miami Center
05:44PM 26.1319 -80.3858 249° West 176 203 3,400 -1,020 Descending Miami Center
05:45PM 26.0819 -80.3775 171° South 168 193 2,000 -660 Descending Miami Center
05:46PM 26.0747 -80.3217 98° East 165 190 2,000 -120 Level Miami Center
05:47PM 26.0739 -80.2753 91° East 159 183 1,800 -420 Descending Miami Center
05:48PM 26.0747 -80.2339 89° East 125 144 1,200 -660 Descending Miami Center
05:49PM 26.0736 -80.1922 92° East 131 151 500 -720 Descending Miami Center
05:51PM 26.0667 -80.1500 103° East  Level FlightAware Approximate
05:58PM 26.0726 -80.1527 103° East  Level Estimated